Wednesday, October 1, 2014, 1:56 AM EDT

KSEG, Selinsgrove Penn Valley Airport

Location: Selinsgrove, PA, United States Lat: 40.817
Local Time: 1:56 AM EDT ( 5:56 GMT) Lon: -76.867
Time Zone: US/Eastern Elev: 449 ft

Show me the last for .
Show Decoded

2014-10-01 01:00 METAR KSEG 010500Z AUTO 00000KT 4SM RA BR SCT065 BKN080 OVC095 16/15 A2999 RMK
                 AO2 P0001 T01610150 =
2014-10-01 00:53 METAR KSEG 010453Z AUTO 00000KT 2 1/2SM +RA BR BKN070 OVC085 16/15 A2999 RMK AO2
                 RAB0355 TSE08 SLP154 P0022 T01610150 402330122 =
2014-10-01 00:29 METAR KSEG 010429Z AUTO 22003KT 4SM RA BR FEW050 SCT065 OVC085 16/15 A2998 RMK
                 AO2 LTG DSNT N AND NW RAB0355 TSE08 P0015 T01610150 =
2014-10-01 00:20 METAR KSEG 010420Z AUTO 00000KT 2 1/2SM RA BR FEW037 BKN060 OVC080 16/15 A2998
                 RMK AO2 LTG DSNT N AND NW RAB0355 TSE08 P0012 T01610150 =
2014-10-01 00:16 METAR KSEG 010416Z AUTO 00000KT 1 1/2SM VCTS +RA BR FEW035 BKN065 OVC080 16/15
                 A2998 RMK AO2 LTG DSNT NW RAB0355 TSE08 P0011 T01610150 =
2014-09-30 23:53 METAR KSEG 010353Z AUTO 00000KT 9SM TS BKN035 OVC042 17/14 A2998 RMK AO2 LTG
                 DSNT N AND SE AND NW TSB53 SLP149 T01720144 =
2014-09-30 22:53 METAR KSEG 010253Z AUTO 16003KT 10SM VCTS SCT043 BKN055 17/14 A2996 RMK AO2 LTG
                 DSNT ALQDS SLP143 60000 T01720139 53012 =
2014-09-30 22:31 METAR KSEG 010231Z AUTO 19007KT 10SM VCTS FEW044 17/14 A2995 RMK AO2 LTG DSNT
                 ALQDS T01720139 =
2014-09-30 21:53 METAR KSEG 010153Z AUTO 19003KT 10SM SCT038 18/14 A2994 RMK AO2 LTG DSNT SE-SW
                 RAB21E39 TSE01 SLP137 P0000 T01780144 =
2014-09-30 21:07 METAR KSEG 010107Z AUTO 00000KT 7SM FEW060 SCT100 BKN120 19/16 A2992 RMK AO2 LTG
                 DSNT S AND SW TSE01 T01940161 =
2014-09-30 20:53 METAR KSEG 010053Z AUTO 00000KT 7SM TS FEW060 SCT110 19/17 A2992 RMK AO2 LTG
                 DSNT SW AND W TSB22E37B46 SLP131 T01940167 =
2014-09-30 20:50 METAR KSEG 010050Z AUTO 00000KT 7SM TS FEW060 SCT120 19/17 A2992 RMK AO2 LTG
                 DSNT SW AND W TSB22E37B46 =
2014-09-30 20:43 METAR KSEG 010043Z AUTO 00000KT 7SM VCTS SCT060 19/17 A2992 RMK AO2 LTG DSNT SW
                 AND W TSB22E37 T01890167 =
2014-09-30 20:28 METAR KSEG 010028Z AUTO 00000KT 7SM TS SCT060 SCT085 19/17 A2992 RMK AO2 LTG
                 DSNT SW AND W TSB22 T01890172 =
2014-09-30 20:06 METAR KSEG 010006Z AUTO 00000KT 7SM FEW060 SCT100 19/17 A2991 RMK AO2 LTG DSNT
                 SW AND W T01940167 =
2014-09-30 19:53 METAR KSEG 302353Z AUTO 00000KT 7SM VCTS SCT060 BKN100 19/17 A2991 RMK AO2 LTG
                 DSNT SW AND W SLP128 T01940172 10233 20194 50012 =
2014-09-30 19:51 METAR KSEG 302351Z AUTO 00000KT 7SM VCTS SCT060 OVC100 19/17 A2991 RMK AO2 LTG
                 DSNT SW AND W =
2014-09-30 18:53 METAR KSEG 302253Z AUTO 00000KT 7SM OVC060 20/17 A2990 RMK AO2 SLP122 T02000172
                 =
2014-09-30 17:53 METAR KSEG 302153Z AUTO 13003KT 7SM SCT060 BKN070 23/16 A2988 RMK AO2 SLP116
                 T02280161 =
2014-09-30 16:53 METAR KSEG 302053Z AUTO 19003KT 7SM SCT065 BKN120 23/16 A2987 RMK AO2 SLP113
                 T02280161 56012 =
2014-09-30 15:53 METAR KSEG 301953Z AUTO 18005KT 7SM SCT070 BKN090 BKN120 22/16 A2988 RMK AO2
                 SLP115 T02220161 =
2014-09-30 14:53 METAR KSEG 301853Z AUTO 00000KT 5SM HZ SCT024 SCT060 22/16 A2990 RMK AO2 SLP121
                 T02170161 =
2014-09-30 14:43 METAR KSEG 301843Z AUTO VRB04KT 6SM HZ BKN024 BKN060 22/17 A2990 RMK AO2
                 T02220167 =
2014-09-30 13:53 METAR KSEG 301753Z AUTO 22004KT 5SM HZ FEW016 22/17 A2990 RMK AO2 SLP125
                 T02220167 10222 20139 58012 =
2014-09-30 12:53 METAR KSEG 301653Z AUTO 00000KT 4SM HZ FEW013 SCT023 BKN065 21/17 A2993 RMK AO2
                 SLP133 T02060167 =
2014-09-30 11:53 METAR KSEG 301553Z AUTO 00000KT 4SM HZ OVC019 19/16 A2993 RMK AO2 SLP133
                 T01940161 =
2014-09-30 11:32 METAR KSEG 301532Z AUTO 00000KT 4SM BR OVC015 18/16 A2993 RMK AO2 T01830161 =
2014-09-30 10:53 METAR KSEG 301453Z AUTO 00000KT 3SM BR FEW004 OVC013 17/16 A2994 RMK AO2 SLP138
                 T01720156 50001 =
2014-09-30 10:46 METAR KSEG 301446Z AUTO 00000KT 3SM BR SCT004 OVC013 17/16 A2994 RMK AO2
                 T01720156 =
2014-09-30 10:35 METAR KSEG 301435Z AUTO 00000KT 3SM BR BKN004 OVC012 17/15 A2994 RMK AO2
                 T01670150 =
2014-09-30 10:10 METAR KSEG 301410Z AUTO 00000KT 2 1/2SM BR OVC002 16/15 A2995 RMK AO2 CIG
                 002V006 T01560150 =
2014-09-30 09:53 METAR KSEG 301353Z AUTO 00000KT 1 1/4SM BR OVC002 15/15 A2995 RMK AO2 SLP141
                 T01500150 =
2014-09-30 09:22 METAR KSEG 301322Z AUTO 00000KT 1 1/4SM BR OVC002 15/14 A2995 RMK AO2 T01500144
                 =
2014-09-30 08:53 METAR KSEG 301253Z AUTO 00000KT 1/4SM FG OVC002 14/14 A2995 RMK AO2 SLP140
                 T01440139 =
2014-09-30 07:53 METAR KSEG 301153Z AUTO 35003KT M1/4SM FG VV001 14/13 A2994 RMK AO2 SLP137
                 T01390133 10144 20122 53010 =
2014-09-30 06:53 METAR KSEG 301053Z AUTO 00000KT 1/4SM FG VV001 14/13 A2992 RMK AO2 SLP131
                 T01390133 =
2014-09-30 05:53 METAR KSEG 300953Z AUTO 00000KT 1/4SM FG VV001 14/14 A2991 RMK AO2 SLP128
                 T01390139 =
2014-09-30 04:53 METAR KSEG 300853Z AUTO 00000KT 1/4SM FG VV002 13/13 A2991 RMK AO2 SLP125
                 T01330128 56005 =
2014-09-30 03:53 METAR KSEG 300753Z AUTO 00000KT 1/4SM FG VV001 13/12 A2991 RMK AO2 SLP126
                 T01330122 =
2014-09-30 02:53 METAR KSEG 300653Z AUTO 00000KT 1/4SM FG VV001 13/12 A2991 RMK AO2 SLP128
                 T01280122 =
2014-09-30 02:19 METAR KSEG 300619Z AUTO 00000KT 1/2SM FG OVC002 13/12 A2992 RMK AO2 T01280117 =
2014-09-30 02:11 METAR KSEG 300611Z AUTO 00000KT 1SM BR VV002 13/12 A2992 RMK AO2 T01280117 =
2014-09-30 02:03 METAR KSEG 300603Z AUTO 00000KT 2 1/2SM BR OVC003 12/12 A2992 RMK AO2 T01220117
                 =

Support USWX by starting your Amazon purchase here.